Time;durP1;ratioP1;P1;durP2;ratioP2;P2;SDS_P1;SDS_P2;PMS_P1;PMS_P2;Temp;Humidity;BMP_temperature;BMP_pressure;BME280_temperature;BME280_humidity;BME280_pressure;Samples;Min_cycle;Max_cycle;Signal;HPM_P1;HPM_P2
2021/09/07 00:01:59;;;;;;;24.23;10.00;;;;;;;4.35;89.66;100669.47;1654451;86;20964;-66
2021/09/07 00:04:32;;;;;;;23.83;9.65;;;;;;;4.31;89.71;100667.78;1647524;86;20972;-67
2021/09/07 00:07:06;;;;;;;17.50;8.50;;;;;;;4.31;89.84;100671.03;1633318;86;21023;-67
2021/09/07 00:09:35;;;;;;;20.70;9.20;;;;;;;4.26;90.03;100669.05;1673103;84;21114;-65
2021/09/07 00:12:08;;;;;;;17.67;8.78;;;;;;;4.26;90.03;100669.05;1711328;83;21000;-65
2021/09/07 00:14:44;;;;;;;16.32;8.28;;;;;;;4.27;90.07;100673.95;1691515;83;20949;-65
2021/09/07 00:17:16;;;;;;;21.12;9.20;;;;;;;4.25;90.06;100674.20;1708980;83;21029;-65
2021/09/07 00:19:57;;;;;;;28.95;9.13;;;;;;;4.23;90.04;100666.00;1676627;84;20985;-66
2021/09/07 00:22:28;;;;;;;22.90;9.55;;;;;;;4.20;90.13;100667.31;1693398;83;21971;-66
2021/09/07 00:24:57;;;;;;;20.60;9.58;;;;;;;4.14;90.26;100662.87;1659029;84;21002;-65
2021/09/07 00:27:35;;;;;;;24.98;10.18;;;;;;;4.13;90.16;100667.19;1658715;85;20955;-66
2021/09/07 00:30:04;;;;;;;28.40;8.93;;;;;;;4.09;90.22;100670.93;1674557;84;20993;-65
2021/09/07 00:32:38;;;;;;;24.15;10.85;;;;;;;4.06;90.31;100668.70;1674711;84;20941;-66
2021/09/07 00:35:11;;;;;;;23.70;9.43;;;;;;;4.07;90.47;100673.60;1695400;83;21907;-66
2021/09/07 00:37:45;;;;;;;23.38;9.73;;;;;;;4.02;90.48;100675.73;1671682;83;20986;-65
2021/09/07 00:40:13;;;;;;;27.27;9.63;;;;;;;4.02;90.48;100675.73;1693605;83;28096;-66
2021/09/07 00:42:42;;;;;;;23.57;10.20;;;;;;;3.97;90.34;100669.67;1679619;83;20903;-65
2021/09/07 00:45:14;;;;;;;24.12;10.35;;;;;;;3.94;90.42;100674.23;1690241;82;21440;-67
2021/09/07 00:47:43;;;;;;;24.10;9.28;;;;;;;3.94;90.51;100681.02;1695031;83;23007;-68
2021/09/07 00:50:17;;;;;;;22.15;9.70;;;;;;;3.91;90.49;100673.36;1700796;83;21552;-67
2021/09/07 00:52:47;;;;;;;22.13;9.25;;;;;;;3.88;90.48;100670.31;1694952;83;20997;-67
2021/09/07 00:55:20;;;;;;;20.72;8.98;;;;;;;3.84;90.43;100666.44;1679615;83;21026;-66
2021/09/07 00:57:50;;;;;;;25.80;9.75;;;;;;;3.84;90.52;100672.69;1680918;83;21601;-67
2021/09/07 01:00:21;;;;;;;31.65;10.58;;;;;;;3.80;90.75;100672.89;1686564;83;20926;-67
2021/09/07 01:02:55;;;;;;;24.10;10.70;;;;;;;3.80;90.75;100672.89;1712761;83;20951;-67
2021/09/07 01:05:25;;;;;;;21.95;9.23;;;;;;;3.79;90.79;100667.16;1684134;83;20957;-66
2021/09/07 01:08:00;;;;;;;24.72;9.90;;;;;;;3.78;90.73;100670.95;1696735;83;20953;-66
2021/09/07 01:10:30;;;;;;;24.25;9.58;;;;;;;3.73;90.66;100666.78;1719257;83;20929;-67
2021/09/07 01:13:03;;;;;;;19.57;9.08;;;;;;;3.69;90.73;100668.86;1716125;83;20897;-67
2021/09/07 01:15:36;;;;;;;21.10;9.55;;;;;;;3.69;90.73;100668.86;1686876;83;20994;-67
2021/09/07 01:18:07;;;;;;;27.25;10.48;;;;;;;3.66;90.79;100674.25;1714178;83;20937;-66
2021/09/07 01:20:42;;;;;;;33.00;12.28;;;;;;;3.63;90.87;100676.91;1681928;83;20950;-68
2021/09/07 01:23:12;;;;;;;32.65;10.50;;;;;;;3.62;91.08;100671.73;1681772;83;20974;-69
2021/09/07 01:25:42;;;;;;;24.87;9.83;;;;;;;3.60;91.18;100671.97;1665732;83;20864;-69
2021/09/07 01:28:16;;;;;;;24.60;9.33;;;;;;;3.60;91.18;100671.97;1676870;83;21021;-68
2021/09/07 01:30:48;;;;;;;24.77;10.82;;;;;;;3.60;91.28;100675.22;1702523;83;20909;-69
2021/09/07 01:33:16;;;;;;;38.00;11.18;;;;;;;3.58;91.29;100668.67;1678478;83;20967;-67
2021/09/07 01:35:52;;;;;;;33.02;10.15;;;;;;;3.58;91.28;100670.56;1703433;83;21014;-66
2021/09/07 01:38:22;;;;;;;23.10;9.38;;;;;;;3.56;91.41;100676.77;1716314;83;21851;-64
2021/09/07 01:40:59;;;;;;;28.30;10.82;;;;;;;3.53;91.42;100671.29;1689763;84;21069;-65
2021/09/07 01:43:32;;;;;;;23.98;10.05;;;;;;;3.51;91.50;100676.13;1665006;84;20935;-68
2021/09/07 01:45:59;;;;;;;25.97;9.28;;;;;;;3.50;91.54;100677.73;1695013;83;20909;-67
2021/09/07 01:48:26;;;;;;;21.15;9.43;;;;;;;3.47;91.54;100676.33;1705601;83;20934;-67
2021/09/07 01:51:02;;;;;;;24.47;8.70;;;;;;;3.44;91.49;100675.48;1712717;83;21146;-66
2021/09/07 01:53:32;;;;;;;21.00;8.20;;;;;;;3.42;91.45;100670.83;1703920;83;21005;-66
2021/09/07 01:56:01;;;;;;;20.30;8.45;;;;;;;3.42;91.45;100670.83;1691247;83;20937;-65
2021/09/07 01:58:32;;;;;;;20.32;9.10;;;;;;;3.42;91.66;100665.93;1685423;84;20919;-66
2021/09/07 02:01:02;;;;;;;23.98;9.28;;;;;;;3.41;91.68;100671.06;1703016;83;20970;-65
2021/09/07 02:03:35;;;;;;;20.70;8.28;;;;;;;3.39;91.76;100666.41;1703456;83;22341;-65
2021/09/07 02:06:04;;;;;;;24.05;9.75;;;;;;;3.39;91.85;100669.95;1712628;83;20985;-66
2021/09/07 02:08:33;;;;;;;23.45;9.15;;;;;;;3.37;91.88;100663.11;1693855;83;20941;-65
2021/09/07 02:11:10;;;;;;;22.65;10.13;;;;;;;3.37;91.86;100669.36;1682727;83;21024;-65
2021/09/07 02:13:45;;;;;;;22.73;9.10;;;;;;;3.35;91.87;100668.78;1663359;84;20927;-65
2021/09/07 02:16:17;;;;;;;25.75;10.30;;;;;;;3.33;91.85;100666.02;1685572;83;21160;-65
2021/09/07 02:18:52;;;;;;;22.05;8.75;;;;;;;3.30;91.89;100677.64;1712260;83;21528;-67
2021/09/07 02:21:26;;;;;;;21.43;9.20;;;;;;;3.27;91.92;100675.41;1702985;83;20959;-66
2021/09/07 02:23:56;;;;;;;28.02;9.28;;;;;;;3.27;91.82;100667.80;1706117;83;21082;-66
2021/09/07 02:26:29;;;;;;;20.95;10.38;;;;;;;3.24;91.83;100666.92;1697632;83;21553;-65
2021/09/07 02:29:01;;;;;;;23.67;9.98;;;;;;;3.22;91.97;100669.88;1698693;83;24603;-66
2021/09/07 02:31:34;;;;;;;22.85;9.15;;;;;;;3.20;91.85;100668.47;1707555;83;21456;-66
2021/09/07 02:34:05;;;;;;;30.12;10.43;;;;;;;3.17;91.80;100664.34;1705617;83;21256;-66
2021/09/07 02:36:37;;;;;;;30.75;10.00;;;;;;;3.13;92.18;100659.64;1657943;85;20999;-66
2021/09/07 02:39:11;;;;;;;30.30;9.80;;;;;;;3.13;92.18;100659.64;1663437;84;20897;-67
2021/09/07 02:41:39;;;;;;;21.55;9.35;;;;;;;3.15;92.27;100665.11;1600785;88;20881;-67
2021/09/07 02:44:09;;;;;;;25.35;9.98;;;;;;;3.14;92.43;100664.82;1670839;84;20945;-67
2021/09/07 02:46:43;;;;;;;34.35;12.23;;;;;;;3.15;92.50;100666.47;1642459;85;20964;-66
2021/09/07 02:49:17;;;;;;;23.90;11.05;;;;;;;3.15;92.49;100671.90;1634440;85;21056;-66
2021/09/07 02:51:50;;;;;;;24.95;10.10;;;;;;;3.15;92.61;100672.43;1678019;84;21001;-66
2021/09/07 02:54:25;;;;;;;24.18;9.75;;;;;;;3.13;92.58;100671.31;1673497;84;20970;-66
2021/09/07 02:56:53;;;;;;;22.55;8.10;;;;;;;3.10;92.47;100669.08;1689443;84;20917;-66
2021/09/07 02:59:27;;;;;;;23.83;9.73;;;;;;;3.10;92.47;100669.08;1654611;84;21005;-67
2021/09/07 03:02:01;;;;;;;21.27;9.20;;;;;;;3.09;92.52;100674.21;1655017;84;21002;-66
2021/09/07 03:04:32;;;;;;;20.72;9.00;;;;;;;3.06;92.77;100671.15;1651755;84;20953;-66
2021/09/07 03:07:02;;;;;;;23.62;9.85;;;;;;;3.07;92.60;100675.52;1674287;84;20893;-66
2021/09/07 03:09:36;;;;;;;20.45;8.83;;;;;;;3.06;92.61;100682.00;1688573;83;20990;-66
2021/09/07 03:12:09;;;;;;;22.25;10.00;;;;;;;3.05;92.67;100685.25;1699167;80;21158;-66
2021/09/07 03:14:37;;;;;;;22.00;8.90;;;;;;;3.03;92.59;100679.23;1729440;81;20941;-66
2021/09/07 03:17:11;;;;;;;15.88;8.35;;;;;;;3.03;92.56;100683.30;1689049;83;20965;-66
2021/09/07 03:19:44;;;;;;;19.80;8.20;;;;;;;3.02;92.61;100678.94;1703515;83;21152;-66
2021/09/07 03:22:15;;;;;;;18.12;9.13;;;;;;;3.00;92.67;100686.48;1713457;83;21624;-66
2021/09/07 03:24:47;;;;;;;16.12;8.15;;;;;;;3.01;92.92;100682.72;1669828;83;21070;-66
2021/09/07 03:27:19;;;;;;;19.37;8.10;;;;;;;3.01;92.92;100682.72;1680791;83;20945;-66
2021/09/07 03:29:52;;;;;;;18.77;8.80;;;;;;;3.00;92.86;100681.06;1688185;83;20980;-66
2021/09/07 03:32:24;;;;;;;16.48;8.00;;;;;;;2.99;93.02;100682.95;1698643;83;20964;-66
2021/09/07 03:34:54;;;;;;;;;;;;;;;3.01;93.20;100680.53;1694957;83;21017;-66
2021/09/07 03:37:25;;;;;;;17.45;8.38;;;;;;;3.01;93.20;100685.96;1710811;83;20123;-66
2021/09/07 03:39:56;;;;;;;17.25;7.90;;;;;;;3.01;93.32;100684.07;1691672;83;21557;-67
2021/09/07 03:42:27;;;;;;;18.98;8.05;;;;;;;3.01;93.34;100682.72;1689208;83;20919;-66
2021/09/07 03:44:57;;;;;;;15.68;7.30;;;;;;;3.03;93.40;100681.95;1704475;83;20846;-66
2021/09/07 03:47:25;;;;;;;18.82;7.85;;;;;;;3.04;93.59;100686.31;1706393;83;21141;-66
2021/09/07 03:49:54;;;;;;;17.10;8.18;;;;;;;3.09;93.81;100685.59;1699829;83;20992;-68
2021/09/07 03:52:23;;;;;;;13.72;7.15;;;;;;;3.14;93.95;100682.45;1707028;83;21072;-66
2021/09/07 03:54:56;;;;;;;17.40;7.50;;;;;;;3.20;94.13;100684.22;1700620;83;21002;-67
2021/09/07 03:57:27;;;;;;;15.53;7.78;;;;;;;3.26;94.33;100689.22;1683541;83;21206;-67
2021/09/07 03:59:59;;;;;;;16.02;7.75;;;;;;;3.33;94.55;100676.88;1695970;83;20862;-67
2021/09/07 04:02:28;;;;;;;22.62;8.60;;;;;;;3.41;94.75;100683.28;1705973;83;20907;-67
2021/09/07 04:05:00;;;;;;;19.32;8.05;;;;;;;3.49;95.14;100682.34;1702820;83;20933;-67
2021/09/07 04:07:35;;;;;;;21.55;8.30;;;;;;;3.60;95.49;100681.47;1684969;83;20898;-66
2021/09/07 04:10:07;;;;;;;22.52;9.35;;;;;;;3.72;96.02;100686.03;1671091;83;20952;-67
2021/09/07 04:12:44;;;;;;;21.42;9.33;;;;;;;3.86;96.39;100688.21;1719337;83;20929;-66
2021/09/07 04:15:19;;;;;;;25.17;9.60;;;;;;;4.01;96.67;100684.13;1696599;83;20976;-66
2021/09/07 04:17:50;;;;;;;25.82;9.18;;;;;;;4.14;96.96;100685.97;1702789;83;20945;-66
2021/09/07 04:20:23;;;;;;;22.15;9.58;;;;;;;4.28;97.26;100683.75;1695079;83;20982;-66
2021/09/07 04:22:58;;;;;;;28.10;11.18;;;;;;;4.45;97.52;100681.86;1696017;83;21106;-65
2021/09/07 04:25:31;;;;;;;21.20;10.68;;;;;;;4.80;98.19;100683.45;1701855;83;21511;-68
2021/09/07 04:28:01;;;;;;;23.27;10.63;;;;;;;4.94;98.38;100682.03;1700088;83;21113;-67
2021/09/07 04:30:28;;;;;;;26.70;11.95;;;;;;;5.10;98.56;100677.08;1683962;83;21454;-68
2021/09/07 04:33:03;;;;;;;19.15;10.43;;;;;;;5.10;98.56;100677.08;1676640;84;21010;-68
2021/09/07 04:35:33;;;;;;;19.75;10.60;;;;;;;5.25;98.46;100678.61;1676063;83;21036;-69
2021/09/07 04:38:06;;;;;;;22.60;10.98;;;;;;;5.40;98.57;100675.79;1702209;83;20992;-65
2021/09/07 04:40:38;;;;;;;23.85;12.45;;;;;;;5.52;98.57;100678.67;1699186;83;20905;-65
2021/09/07 04:43:08;;;;;;;21.75;11.78;;;;;;;5.65;98.56;100680.17;1677481;84;21042;-65
2021/09/07 04:45:35;;;;;;;22.95;11.53;;;;;;;5.77;98.61;100675.95;1719090;83;20997;-65
2021/09/07 04:48:11;;;;;;;26.73;11.60;;;;;;;5.87;98.65;100673.30;1707957;83;21166;-66
2021/09/07 04:50:41;;;;;;;26.85;13.00;;;;;;;5.99;98.82;100678.09;1698430;83;20890;-66
2021/09/07 04:53:09;;;;;;;21.87;10.90;;;;;;;6.14;99.05;100684.22;1676511;83;20888;-66
2021/09/07 04:55:41;;;;;;;24.87;12.07;;;;;;;6.28;98.93;100684.08;1700242;83;20970;-66
2021/09/07 04:58:10;;;;;;;23.27;12.68;;;;;;;6.43;98.84;100683.36;1684159;83;20900;-67
2021/09/07 05:00:39;;;;;;;24.47;12.63;;;;;;;6.56;98.72;100685.64;1701319;83;21167;-67
2021/09/07 05:03:10;;;;;;;23.12;11.18;;;;;;;6.68;98.37;100684.92;1711180;81;20935;-66
2021/09/07 05:05:42;;;;;;;30.00;12.73;;;;;;;6.81;97.15;100680.91;1735501;82;20928;-66
2021/09/07 05:08:11;;;;;;;25.35;11.80;;;;;;;6.94;96.47;100682.61;1654810;85;21086;-67
2021/09/07 05:10:45;;;;;;;23.70;10.55;;;;;;;7.07;95.71;100685.41;1732739;82;20940;-66
2021/09/07 05:13:14;;;;;;;21.97;11.00;;;;;;;7.19;95.10;100675.64;1730320;82;21081;-66
2021/09/07 05:15:40;;;;;;;27.82;11.70;;;;;;;7.32;94.16;100675.70;1721110;82;20888;-66
2021/09/07 05:18:18;;;;;;;33.55;12.68;;;;;;;7.44;92.91;100685.31;1724568;82;20987;-66
2021/09/07 05:20:46;;;;;;;24.60;11.57;;;;;;;7.55;92.11;100680.69;1732459;82;20932;-66
2021/09/07 05:23:18;;;;;;;26.12;11.18;;;;;;;7.70;91.55;100682.10;1705345;82;20935;-66
2021/09/07 05:25:47;;;;;;;23.38;11.40;;;;;;;7.84;90.42;100683.78;1712912;81;20960;-66
2021/09/07 05:28:16;;;;;;;24.07;10.88;;;;;;;7.97;89.13;100679.70;1728390;82;20987;-66
2021/09/07 05:30:45;;;;;;;18.05;8.90;;;;;;;8.09;88.76;100682.43;1732843;82;20928;-66
2021/09/07 05:33:15;;;;;;;17.57;8.88;;;;;;;8.22;86.34;100679.16;1707784;82;20940;-66
2021/09/07 05:35:44;;;;;;;19.23;7.97;;;;;;;8.32;85.51;100686.56;1723780;82;20925;-66
2021/09/07 05:38:17;;;;;;;19.32;8.50;;;;;;;8.43;82.97;100689.60;1714085;82;20912;-66
2021/09/07 05:40:45;;;;;;;17.42;7.83;;;;;;;8.52;83.07;100688.52;1722498;82;20990;-66
2021/09/07 05:43:19;;;;;;;28.30;8.50;;;;;;;8.67;81.54;100691.75;1712964;82;21030;-66
2021/09/07 05:45:47;;;;;;;14.55;7.22;;;;;;;8.81;81.70;100694.20;1733201;82;20990;-66
2021/09/07 05:48:15;;;;;;;26.52;6.72;;;;;;;8.97;80.53;100704.04;1715243;82;20995;-67
2021/09/07 05:50:43;;;;;;;19.05;7.47;;;;;;;9.12;79.91;100702.64;1730758;82;20983;-66
2021/09/07 05:53:16;;;;;;;14.23;7.10;;;;;;;9.28;79.65;100702.84;1703763;82;21538;-65
2021/09/07 05:55:47;;;;;;;16.60;6.83;;;;;;;9.45;78.54;100700.31;1733676;82;21526;-66
2021/09/07 05:58:19;;;;;;;15.58;6.80;;;;;;;9.59;77.50;100703.55;1715815;82;20920;-66
2021/09/07 06:00:51;;;;;;;13.60;6.00;;;;;;;9.75;77.29;100697.45;1733341;82;21032;-65
2021/09/07 06:03:21;;;;;;;;;;;;;;;9.92;76.77;100704.73;1731242;82;21071;-66
2021/09/07 06:05:53;;;;;;;14.30;6.15;;;;;;;10.06;75.55;100704.09;1708720;82;20461;-66
2021/09/07 06:08:27;;;;;;;13.28;6.08;;;;;;;10.17;74.80;100707.05;1699867;82;21005;-67
2021/09/07 06:10:58;;;;;;;13.50;6.53;;;;;;;10.29;74.60;100713.58;1731867;81;20955;-68
2021/09/07 06:13:25;;;;;;;30.27;6.97;;;;;;;10.44;74.71;100719.75;1744579;82;21011;-66
2021/09/07 06:15:58;;;;;;;11.53;5.62;;;;;;;10.58;74.77;100712.50;1718362;81;20959;-67
2021/09/07 06:18:26;;;;;;;12.37;5.47;;;;;;;10.77;73.84;100715.92;1740115;81;21051;-65
2021/09/07 06:20:57;;;;;;;11.63;5.58;;;;;;;10.91;72.84;100722.38;1713349;83;21032;-66
2021/09/07 06:23:30;;;;;;;9.83;5.33;;;;;;;11.04;72.47;100716.18;1720537;82;20984;-65
2021/09/07 06:26:05;;;;;;;13.68;5.62;;;;;;;11.17;70.85;100725.11;1700816;81;20999;-65
2021/09/07 06:28:40;;;;;;;11.57;5.83;;;;;;;11.29;69.53;100728.02;1702090;82;20956;-66
2021/09/07 06:31:15;;;;;;;12.45;5.53;;;;;;;11.39;69.48;100727.91;1725968;82;21027;-67
2021/09/07 06:33:47;;;;;;;12.93;5.50;;;;;;;11.49;69.31;100723.11;1746248;82;20902;-67
2021/09/07 06:36:17;;;;;;;12.50;5.83;;;;;;;11.64;69.47;100725.38;1703258;81;20945;-69
2021/09/07 06:38:50;;;;;;;16.57;5.92;;;;;;;11.81;69.44;100728.50;1691080;81;20892;-69
2021/09/07 06:41:24;;;;;;;12.15;5.22;;;;;;;12.00;68.92;100731.27;1730764;82;21158;-68
2021/09/07 06:43:58;;;;;;;13.75;6.33;;;;;;;12.18;67.69;100737.32;1725937;81;21418;-70
2021/09/07 06:46:24;;;;;;;12.03;5.25;;;;;;;12.34;67.17;100735.16;1685361;83;21125;-67
2021/09/07 06:48:59;;;;;;;10.10;5.47;;;;;;;12.48;65.96;100727.23;1710279;83;21111;-68
2021/09/07 06:51:30;;;;;;;9.93;5.00;;;;;;;12.64;65.24;100732.48;1712263;83;20889;-68
2021/09/07 06:54:00;;;;;;;9.75;5.60;;;;;;;12.78;64.03;100731.95;1656779;85;21477;-69
2021/09/07 06:56:33;;;;;;;15.38;5.25;;;;;;;12.92;64.24;100732.80;1656846;84;21024;-69
2021/09/07 06:59:03;;;;;;;12.55;5.75;;;;;;;13.07;62.96;100732.53;1658908;84;20880;-68
2021/09/07 07:01:35;;;;;;;12.50;5.15;;;;;;;13.19;63.73;100737.03;1729649;81;21491;-69
2021/09/07 07:04:05;;;;;;;10.20;4.40;;;;;;;13.33;61.59;100736.20;1706288;82;20948;-70
2021/09/07 07:06:35;;;;;;;9.80;4.62;;;;;;;13.41;61.22;100734.94;1684833;83;20980;-68
2021/09/07 07:09:06;;;;;;;10.05;4.40;;;;;;;13.49;61.56;100738.36;1710317;82;20904;-68
2021/09/07 07:11:36;;;;;;;7.17;4.12;;;;;;;13.61;60.61;100741.98;1718580;81;20969;-68
2021/09/07 07:14:03;;;;;;;8.05;3.95;;;;;;;13.75;60.39;100735.09;1722062;81;21072;-70
2021/09/07 07:16:36;;;;;;;9.55;4.55;;;;;;;13.88;61.14;100735.61;1737715;82;21036;-68
2021/09/07 07:19:06;;;;;;;7.53;4.25;;;;;;;14.03;59.12;100741.36;1699424;82;20993;-68
2021/09/07 07:21:36;;;;;;;8.33;4.28;;;;;;;14.21;59.54;100737.64;1735242;82;20993;-69
2021/09/07 07:24:09;;;;;;;8.25;3.80;;;;;;;14.42;60.11;100736.64;1737260;81;20945;-71
2021/09/07 07:26:37;;;;;;;7.60;3.95;;;;;;;14.71;58.99;100738.38;1734090;82;20994;-68
2021/09/07 07:29:07;;;;;;;10.03;4.00;;;;;;;15.17;58.06;100740.77;1716612;82;21026;-69
2021/09/07 07:31:39;;;;;;;10.32;3.98;;;;;;;15.75;55.73;100748.02;1713851;82;21799;-68
2021/09/07 07:34:18;;;;;;;9.58;3.87;;;;;;;16.33;52.85;100735.71;1730065;81;21428;-68
2021/09/07 07:36:54;;;;;;;9.98;3.62;;;;;;;16.84;50.37;100738.22;1733347;80;21051;-68
2021/09/07 07:39:21;;;;;;;5.55;3.05;;;;;;;17.31;49.90;100739.66;1721935;81;21431;-68
2021/09/07 07:41:51;;;;;;;9.03;3.10;;;;;;;17.76;49.17;100742.73;1702538;83;20921;-69
2021/09/07 07:44:20;;;;;;;15.98;4.12;;;;;;;18.17;47.74;100739.19;1728002;81;21098;-68
2021/09/07 07:46:48;;;;;;;10.15;3.35;;;;;;;18.53;46.61;100739.95;1718991;82;21500;-68
2021/09/07 07:49:21;;;;;;;4.45;2.60;;;;;;;18.86;43.72;100739.19;1740480;81;20993;-70
2021/09/07 07:51:55;;;;;;;6.05;2.42;;;;;;;18.90;41.82;100740.95;1733094;81;20958;-67
2021/09/07 07:54:24;;;;;;;15.83;3.40;;;;;;;18.95;43.16;100737.14;1723276;82;21395;-70
2021/09/07 07:56:58;;;;;;;5.42;2.83;;;;;;;19.18;43.22;100736.94;1695215;83;20978;-69
2021/09/07 07:59:26;;;;;;;3.55;2.42;;;;;;;19.31;41.94;100733.02;1716220;82;20943;-68
2021/09/07 08:01:54;;;;;;;5.22;2.55;;;;;;;19.47;41.88;100733.16;1714790;82;21097;-68
2021/09/07 08:04:26;;;;;;;6.55;2.72;;;;;;;19.60;40.74;100739.00;1746560;81;20862;-68
2021/09/07 08:06:57;;;;;;;;;;;;;;;19.58;38.70;100734.94;1736049;81;20937;-67
2021/09/07 08:09:29;;;;;;;6.20;2.55;;;;;;;19.48;39.38;100732.00;1740235;81;22029;-69
2021/09/07 08:11:59;;;;;;;6.60;3.70;;;;;;;19.49;41.09;100731.42;1714625;82;21043;-70
2021/09/07 08:14:34;;;;;;;7.40;3.33;;;;;;;19.67;39.21;100739.21;1687302;83;21033;-69
2021/09/07 08:17:04;;;;;;;3.87;2.75;;;;;;;19.75;38.45;100730.51;1722010;81;20944;-69
2021/09/07 08:19:34;;;;;;;7.72;3.22;;;;;;;19.79;38.51;100726.67;1714529;82;20960;-71
2021/09/07 08:22:06;;;;;;;7.12;3.20;;;;;;;19.81;38.24;100731.09;1721004;82;21228;-68
2021/09/07 08:24:41;;;;;;;9.85;3.20;;;;;;;19.95;38.38;100730.15;1699768;82;20988;-68
2021/09/07 08:27:17;;;;;;;10.78;3.60;;;;;;;20.04;37.73;100725.27;1744985;81;20952;-68
2021/09/07 08:29:46;;;;;;;15.83;3.70;;;;;;;20.22;38.77;100726.59;1717406;82;21051;-68
2021/09/07 08:32:22;;;;;;;9.78;3.05;;;;;;;20.34;36.82;100722.38;1727562;82;20987;-69
2021/09/07 08:34:51;;;;;;;7.87;2.95;;;;;;;20.27;36.99;100725.53;1724955;81;20948;-68
2021/09/07 08:37:18;;;;;;;6.97;2.77;;;;;;;20.35;36.98;100720.41;1741722;81;20996;-67
2021/09/07 08:39:45;;;;;;;11.80;3.55;;;;;;;20.38;35.50;100714.96;1722793;82;21019;-69
2021/09/07 08:42:12;;;;;;;10.43;3.35;;;;;;;20.18;36.68;100718.73;1728636;82;21001;-69
2021/09/07 08:44:46;;;;;;;8.73;2.85;;;;;;;20.31;37.10;100718.09;1737613;81;21622;-68
2021/09/07 08:47:18;;;;;;;7.97;3.40;;;;;;;20.58;37.16;100730.47;1708643;82;21789;-69
2021/09/07 08:49:45;;;;;;;9.05;3.80;;;;;;;20.70;34.50;100717.88;1709889;82;20930;-65
2021/09/07 08:52:14;;;;;;;6.87;3.10;;;;;;;20.43;34.98;100720.88;1726943;81;20928;-67
2021/09/07 08:54:44;;;;;;;4.35;2.55;;;;;;;20.13;34.67;100714.80;1733232;82;21021;-65
2021/09/07 08:57:12;;;;;;;11.00;3.22;;;;;;;20.13;35.72;100718.97;1742840;81;20937;-67
2021/09/07 08:59:39;;;;;;;11.65;3.95;;;;;;;20.28;35.14;100727.16;1744572;81;21029;-66
2021/09/07 09:02:17;;;;;;;9.03;3.67;;;;;;;20.13;35.30;100724.55;1725051;82;21590;-66
2021/09/07 09:04:46;;;;;;;8.50;3.17;;;;;;;20.04;35.69;100716.90;1729091;81;21558;-67
2021/09/07 09:07:25;;;;;;;11.22;4.40;;;;;;;20.11;35.21;100719.33;1712316;82;21149;-67
2021/09/07 09:09:54;;;;;;;8.70;3.47;;;;;;;20.00;34.53;100723.75;1724455;82;20897;-67
2021/09/07 09:12:31;;;;;;;9.78;3.80;;;;;;;19.82;35.13;100716.80;1701508;82;21138;-67
2021/09/07 09:14:58;;;;;;;9.95;3.17;;;;;;;19.77;35.90;100714.25;1711237;82;20952;-66
2021/09/07 09:17:28;;;;;;;8.48;3.17;;;;;;;19.69;35.67;100711.81;1747650;81;21545;-68
2021/09/07 09:20:14;;;;;;;5.33;2.72;;;;;;;19.72;36.70;100700.56;1723308;82;21064;-67
2021/09/07 09:22:54;;;;;;;11.15;2.60;;;;;;;20.04;36.29;100704.36;1732249;82;20940;-68
2021/09/07 09:25:33;;;;;;;12.58;2.60;;;;;;;20.36;35.17;100704.71;1708183;82;21540;-67
2021/09/07 09:28:16;;;;;;;7.72;2.55;;;;;;;20.40;35.30;100705.66;1728598;82;20924;-68
2021/09/07 09:30:51;;;;;;;6.92;2.45;;;;;;;20.40;36.04;100707.64;1726800;82;21016;-68
2021/09/07 09:33:26;;;;;;;14.40;3.58;;;;;;;20.30;34.65;100697.76;1726575;82;20936;-70
2021/09/07 09:36:03;;;;;;;10.72;2.70;;;;;;;20.03;36.46;100704.13;1726859;82;20975;-69
2021/09/07 09:38:34;;;;;;;8.85;2.92;;;;;;;19.78;36.11;100703.34;1722248;82;21722;-68
2021/09/07 09:41:05;;;;;;;10.82;3.08;;;;;;;19.80;35.21;100699.62;1706195;82;20987;-70
2021/09/07 09:43:43;;;;;;;8.53;2.47;;;;;;;19.94;36.00;100697.87;1742602;81;20967;-70
2021/09/07 09:46:22;;;;;;;10.53;2.37;;;;;;;20.14;36.03;100691.91;1743246;81;20884;-69
2021/09/07 09:48:51;;;;;;;7.95;2.30;;;;;;;20.14;37.12;100694.70;1743650;81;20889;-68
2021/09/07 09:51:19;;;;;;;11.50;2.58;;;;;;;19.99;35.30;100697.63;1697797;82;21099;-68
2021/09/07 09:53:49;;;;;;;12.60;2.42;;;;;;;19.66;36.36;100695.80;1723874;81;20980;-68
2021/09/07 09:56:18;;;;;;;21.97;3.08;;;;;;;19.46;36.35;100692.55;1725866;82;21582;-68
2021/09/07 09:58:46;;;;;;;12.73;2.75;;;;;;;19.28;36.95;100698.10;1735417;81;21534;-68
2021/09/07 10:01:13;;;;;;;8.90;2.45;;;;;;;19.35;37.13;100699.73;1717100;82;21043;-67
2021/09/07 10:03:40;;;;;;;10.65;3.02;;;;;;;19.72;37.52;100693.02;1731874;81;21176;-67
2021/09/07 10:06:09;;;;;;;8.75;3.27;;;;;;;20.13;36.57;100691.09;1741396;81;20952;-67
2021/09/07 10:08:39;;;;;;;10.72;2.60;;;;;;;20.11;35.83;100700.39;1718250;81;21021;-68
2021/09/07 10:11:13;;;;;;;9.30;2.33;;;;;;;19.96;35.74;100701.12;1709607;81;21055;-68
2021/09/07 10:13:45;;;;;;;6.67;2.37;;;;;;;19.74;36.06;100694.87;1760170;81;20920;-67
2021/09/07 10:16:17;;;;;;;19.42;3.33;;;;;;;19.91;36.43;100701.36;1757981;81;21447;-68
2021/09/07 10:24:00;;;;;;;8.15;2.90;;;;;;;20.04;36.52;100688.45;1761593;81;20977;-67
2021/09/07 10:26:44;;;;;;;10.23;2.90;;;;;;;20.34;35.09;100688.10;1748865;80;20970;-68
2021/09/07 10:29:19;;;;;;;11.08;4.35;;;;;;;20.73;34.47;100691.47;1756084;81;21430;-68
2021/09/07 10:31:51;;;;;;;9.43;3.20;;;;;;;21.04;33.85;100689.88;1760038;81;20940;-68
2021/09/07 10:34:20;;;;;;;6.85;3.08;;;;;;;20.90;33.95;100684.72;1749881;81;20933;-68
2021/09/07 10:37:04;;;;;;;10.50;3.10;;;;;;;20.66;34.07;100684.87;1758728;81;20931;-68
2021/09/07 10:39:38;;;;;;;8.05;2.92;;;;;;;20.40;34.21;100679.16;1763297;81;20928;-67
2021/09/07 10:42:08;;;;;;;7.90;3.17;;;;;;;20.59;34.87;100669.33;1756094;81;21087;-68
2021/09/07 10:44:37;;;;;;;11.83;3.67;;;;;;;20.67;33.72;100666.38;1762295;81;21642;-68
2021/09/07 10:47:14;;;;;;;7.58;2.72;;;;;;;20.55;34.51;100673.41;1758919;81;20928;-68
2021/09/07 10:49:49;;;;;;;7.08;2.70;;;;;;;20.67;34.91;100669.75;1755329;81;20932;-68
2021/09/07 10:52:29;;;;;;;9.85;2.70;;;;;;;21.01;34.97;100665.47;1762465;81;20897;-68
2021/09/07 10:55:11;;;;;;;7.45;2.47;;;;;;;21.28;32.80;100668.80;1757189;81;21166;-67
2021/09/07 10:57:56;;;;;;;8.87;3.17;;;;;;;21.14;32.87;100671.20;1751567;81;20984;-67
2021/09/07 11:00:27;;;;;;;6.95;2.83;;;;;;;20.78;32.53;100667.26;1757291;81;21093;-67
2021/09/07 11:02:59;;;;;;;10.00;2.77;;;;;;;20.74;33.39;100676.34;1752566;81;20991;-68
2021/09/07 11:05:32;;;;;;;6.78;2.72;;;;;;;21.02;32.52;100669.30;1759064;81;20925;-67
2021/09/07 11:08:05;;;;;;;15.13;3.20;;;;;;;21.25;32.38;100675.69;1756016;81;21146;-66
2021/09/07 11:10:44;;;;;;;14.03;2.95;;;;;;;21.26;33.17;100671.14;1733032;81;21127;-66
2021/09/07 11:13:29;;;;;;;4.95;2.27;;;;;;;21.32;31.95;100678.66;1699008;82;21595;-67
2021/09/07 11:16:02;;;;;;;5.58;2.40;;;;;;;21.26;32.26;100668.94;1741614;81;20997;-68
2021/09/07 11:18:34;;;;;;;8.58;2.70;;;;;;;21.02;32.77;100671.27;1694759;83;20897;-67
2021/09/07 11:21:07;;;;;;;6.97;2.70;;;;;;;20.98;33.18;100669.78;1655445;84;21588;-67
2021/09/07 11:23:36;;;;;;;15.48;4.17;;;;;;;21.07;33.12;100665.42;1725969;81;21523;-68
2021/09/07 11:26:10;;;;;;;9.05;3.58;;;;;;;21.24;34.07;100660.11;1752355;81;20979;-67
2021/09/07 11:28:39;;;;;;;7.00;2.65;;;;;;;21.40;33.99;100664.48;1711785;81;20959;-68
2021/09/07 11:31:07;;;;;;;16.85;3.22;;;;;;;21.60;33.39;100656.17;1730177;81;21051;-72
2021/09/07 11:33:37;;;;;;;10.35;2.92;;;;;;;21.69;32.88;100656.20;1705337;82;21629;-67
2021/09/07 11:36:16;;;;;;;12.58;2.87;;;;;;;21.74;32.33;100654.52;1695762;82;21026;-68
2021/09/07 11:38:46;;;;;;;7.78;2.95;;;;;;;21.72;31.63;100655.47;1740204;80;21581;-66
2021/09/07 11:41:16;;;;;;;8.83;2.70;;;;;;;21.64;32.76;100650.89;1727410;81;21119;-66
2021/09/07 11:43:51;;;;;;;4.87;2.20;;;;;;;21.71;32.35;100650.25;1696836;81;21530;-66
2021/09/07 11:46:23;;;;;;;7.22;2.95;;;;;;;21.88;31.89;100647.64;1706753;82;22374;-67
2021/09/07 11:48:55;;;;;;;10.05;3.30;;;;;;;22.01;32.10;100650.50;1703156;81;21025;-68